Latest Weather Observations for Woomera

IDS60801

Issued at 9:02 pm CST Saturday 23 May 2015 (issued every 30 minutes, with the page automatically refreshed every 10 minutes)

About weather observations | Map of weather stations | Latest weather observations for SA | Other Formats
Station Details ID: 016001 Name: WOOMERA AERODROME Lat: -31.16 Lon: 136.81 Height: 166.6 m
Data from the previous 72 hours. | See also: Recent months at Woomera
Date/Time
CST
Temp
°C
App
Temp
°C
Dew
Point
Rel
Hum
%
Delta-T
°C
Wind Press
QNH
hPa
Press
MSL
hPa
Rain
since 9 am
mm
Dir
 
Spd
km/h
Gust
km/h
Spd
kts
Gust
kts
23/09:00pm 13.5 10.6 4.4 54 4.2 E 9 9 5 5 1027.2 1027.1 0.0
23/08:30pm 12.5 9.1 3.8 55 3.9 ESE 11 13 6 7 1027.1 - 0.0
23/08:00pm 14.2 11.7 4.5 52 4.5 ENE 7 9 4 5 1026.9 - 0.0
23/07:30pm 13.6 11.1 4.5 54 4.2 ENE 7 9 4 5 1026.9 - 0.0
23/07:00pm 14.0 10.6 4.2 51 4.5 NE 11 11 6 6 1026.7 - 0.0
23/06:30pm 14.0 10.6 3.9 50 4.6 NNE 11 11 6 6 1026.7 - 0.0
23/06:00pm 14.7 10.9 4.1 49 4.9 NNE 13 15 7 8 1026.7 1026.6 0.0
23/05:30pm 15.9 12.5 4.1 45 5.5 NNE 11 15 6 8 1026.6 - 0.0
23/05:00pm 17.3 13.1 3.9 41 6.3 NNE 15 19 8 10 1026.5 - 0.0
23/04:30pm 18.0 12.7 3.1 37 7.0 NE 20 30 11 16 1026.5 - 0.0
23/04:00pm 18.7 14.4 3.0 35 7.4 NNE 15 22 8 12 1026.4 - 0.0
23/03:30pm 18.7 13.4 3.0 35 7.4 NE 20 26 11 14 1026.4 - 0.0
23/03:00pm 18.7 14.4 3.0 35 7.3 N 15 26 8 14 1026.7 1026.6 0.0
23/02:30pm 18.8 12.6 1.9 32 7.7 N 24 32 13 17 1027.1 - 0.0
23/02:00pm 18.8 13.6 3.8 37 7.1 NNE 20 28 11 15 1027.4 - 0.0
23/01:30pm 18.3 13.3 4.8 41 6.5 NE 20 30 11 16 1027.4 - 0.0
23/01:00pm 18.2 12.8 4.6 40 6.6 NNE 22 30 12 16 1027.7 - 0.0
23/12:30pm 17.9 12.6 5.0 42 6.3 NE 22 35 12 19 1028.2 - 0.0
23/12:00pm 17.4 12.8 5.4 45 5.8 NNE 19 26 10 14 1028.9 1028.9 0.0
23/11:30am 16.5 11.7 5.7 49 5.2 NE 20 28 11 15 1029.5 - 0.0
23/11:00am 16.1 12.0 6.0 51 4.9 NNE 17 24 9 13 1029.8 - 0.0
23/10:30am 15.1 10.6 6.2 55 4.3 NE 19 24 10 13 1030.4 - 0.0
23/10:00am 13.6 10.0 6.8 63 3.3 NE 15 20 8 11 1030.4 - 0.0
23/09:30am 12.7 9.4 6.6 66 2.9 E 13 17 7 9 1030.4 - 0.0
23/09:00am 11.0 8.1 6.5 74 2.1 E 11 13 6 7 1030.6 1030.5 0.0
23/08:30am 8.9 5.9 6.1 82 1.3 E 11 13 6 7 1030.3 - 0.0
23/08:00am 7.3 4.2 5.5 88 0.8 ESE 11 13 6 7 1030.2 - 0.0
23/07:30am 6.8 2.5 5.2 89 0.7 ESE 17 17 9 9 1029.7 - 0.0
23/07:00am 6.4 2.4 4.8 89 0.7 ESE 15 17 8 9 1029.6 - 0.0
23/06:30am 6.6 3.0 5.0 89 0.7 ESE 13 15 7 8 1029.5 - 0.0
23/06:00am 6.8 2.9 5.2 89 0.7 ESE 15 15 8 8 1029.2 1029.2 0.0
23/05:30am 7.1 3.2 5.3 88 0.8 ESE 15 17 8 9 1029.1 - 0.0
23/05:00am 6.9 3.3 5.1 88 0.8 ESE 13 17 7 9 1029.0 - 0.0
23/04:30am 7.1 3.5 5.1 87 0.9 ESE 13 15 7 8 1029.0 - 0.0
23/04:00am 7.3 3.8 5.3 87 0.9 ESE 13 15 7 8 1029.0 - 0.0
23/03:30am 7.5 3.6 5.3 86 1.0 ESE 15 17 8 9 1029.1 - 0.0
23/03:00am 7.4 3.1 5.4 87 0.9 E 17 19 9 10 1029.2 1029.2 0.0
23/02:30am 7.9 3.3 5.7 86 1.0 E 19 19 10 10 1029.3 - 0.0
23/02:00am 8.0 3.8 5.8 86 1.0 ESE 17 20 9 11 1029.3 - 0.0
23/01:30am 8.3 3.8 5.9 85 1.1 ESE 19 20 10 11 1029.3 - 0.0
23/01:00am 8.0 3.8 5.8 86 1.0 ESE 17 24 9 13 1029.4 - 0.0
23/12:30am 9.1 4.6 6.3 83 1.3 SE 19 22 10 12 1029.5 - 0.0
23/12:00am 9.4 5.3 6.1 80 1.5 SE 17 20 9 11 1029.7 1029.7 0.0
 
Date/Time
CST
Temp
°C
App
Temp
°C
Dew
Point
Rel
Hum
%
Delta-T
°C
Wind Press
QNH
hPa
Press
MSL
hPa
Rain
since 9 am
mm
Dir
 
Spd
km/h
Gust
km/h
Spd
kts
Gust
kts
22/11:30pm 8.8 4.9 5.2 78 1.6 SE 15 17 8 9 1029.8 - 0.0
22/11:00pm 8.8 5.5 4.8 76 1.8 SE 11 13 6 7 1029.8 - 0.0
22/10:30pm 9.2 5.9 4.7 73 2.0 SSE 11 13 6 7 1029.7 - 0.0
22/10:00pm 10.0 6.7 4.6 69 2.4 SE 11 15 6 8 1029.6 - 0.0
22/09:30pm 10.9 6.5 5.0 67 2.7 SE 17 22 9 12 1029.4 - 0.0
22/09:00pm 10.9 6.9 4.7 65 2.8 SSE 15 17 8 9 1029.4 1029.4 0.0
22/08:30pm 11.3 7.3 4.7 64 3.0 SSE 15 19 8 10 1029.3 - 0.0
22/08:00pm 11.5 7.5 4.7 63 3.1 SSE 15 17 8 9 1029.1 - 0.0
22/07:30pm 12.0 7.9 4.5 60 3.4 SSE 15 17 8 9 1029.0 - 0.0
22/07:00pm 12.2 8.1 4.5 59 3.5 SSE 15 17 8 9 1029.1 - 0.0
22/06:30pm 13.0 9.3 4.5 56 3.9 SSE 13 17 7 9 1029.0 - 0.0
22/06:00pm 13.7 9.3 4.6 54 4.2 SE 17 19 9 10 1028.9 1028.9 0.0
22/05:30pm 14.4 9.5 4.2 50 4.7 SE 19 20 10 11 1028.7 - 0.0
22/05:00pm 15.0 9.9 4.2 48 5.0 SSE 20 26 11 14 1028.5 - 0.0
22/04:30pm 15.4 11.0 4.5 48 5.1 SSE 17 24 9 13 1028.5 - 0.0
22/04:00pm 16.0 10.9 3.9 44 5.7 SSE 20 28 11 15 1028.6 - 0.0
22/03:30pm 16.1 11.5 3.8 44 5.7 S 17 22 9 12 1028.9 - 0.0
22/03:00pm 16.2 11.5 3.4 42 5.9 S 17 26 9 14 1028.9 1028.9 0.0
22/02:30pm 15.8 11.2 3.6 44 5.7 S 17 26 9 14 1029.0 - 0.0
22/02:00pm 15.9 11.4 4.1 45 5.5 SSE 17 24 9 13 1029.1 - 0.0
22/01:30pm 15.6 11.2 4.8 48 5.1 SSE 17 28 9 15 1029.5 - 0.0
22/01:00pm 15.2 11.2 4.7 49 5.0 S 15 24 8 13 1029.8 - 0.0
22/12:30pm 14.6 10.2 4.5 50 4.7 SE 17 30 9 16 1030.0 - 0.0
22/12:00pm 14.5 10.0 4.0 49 4.8 SE 17 30 9 16 1030.6 1030.5 0.0
22/11:30am 14.0 9.6 5.0 54 4.2 SSE 17 24 9 13 1031.1 - 0.0
22/11:00am 13.5 8.8 5.1 57 3.9 SSE 19 24 10 13 1031.7 - 0.0
22/10:30am 12.9 8.2 6.1 63 3.2 SSE 20 24 11 13 1031.8 - 0.0
22/10:00am 12.1 8.0 6.2 67 2.8 S 17 20 9 11 1032.2 - 0.0
22/09:30am 11.2 7.2 6.5 73 2.2 S 17 20 9 11 1031.9 - 0.0
22/09:00am 9.5 6.6 6.5 81 1.4 SW 11 15 6 8 1031.7 1031.6 0.0
22/08:30am 7.6 4.9 5.6 87 0.9 SW 9 13 5 7 1031.4 - 0.0
22/08:00am 6.1 2.9 5.0 93 0.5 SW 11 13 6 7 1031.1 - 0.0
22/07:30am 4.6 1.2 3.9 95 0.3 SSW 11 15 6 8 1030.8 - 0.0
22/07:00am 4.7 1.0 4.2 97 0.2 S 13 15 7 8 1030.5 - 0.0
22/06:30am 5.4 1.7 4.5 94 0.4 S 13 17 7 9 1029.9 - 0.0
22/06:00am 5.7 1.3 4.5 92 0.5 S 17 17 9 9 1029.6 1029.6 0.0
22/05:30am 5.3 1.9 4.1 92 0.5 S 11 15 6 8 1029.2 - 0.0
22/05:00am 6.2 3.2 4.3 88 0.8 SSE 9 13 5 7 1029.0 - 0.0
22/04:30am 6.3 3.7 4.4 88 0.8 S 7 9 4 5 1028.9 - 0.0
22/04:00am 6.2 3.6 4.1 86 0.9 W 7 9 4 5 1028.8 - 0.0
22/03:30am 7.4 3.4 4.7 83 1.2 S 15 17 8 9 1028.7 - 0.0
22/03:00am 6.5 2.3 3.9 83 1.1 S 15 17 8 9 1028.9 1028.9 0.0
22/02:30am 6.4 1.9 4.1 85 1.0 S 17 19 9 10 1029.1 - 0.0
22/02:00am 6.4 1.8 3.8 83 1.1 S 17 19 9 10 1029.1 - 0.0
22/01:30am 6.6 2.8 4.0 83 1.1 S 13 17 7 9 1029.2 - 0.0
22/01:00am 6.8 2.6 4.0 82 1.2 S 15 17 8 9 1029.3 - 0.0
22/12:30am 6.9 2.4 4.4 84 1.1 S 17 20 9 11 1029.4 - 0.0
22/12:00am 7.6 3.2 4.6 81 1.3 S 17 19 9 10 1029.4 1029.4 0.0
 
Date/Time
CST
Temp
°C
App
Temp
°C
Dew
Point
Rel
Hum
%
Delta-T
°C
Wind Press
QNH
hPa
Press
MSL
hPa
Rain
since 9 am
mm
Dir
 
Spd
km/h
Gust
km/h
Spd
kts
Gust
kts
21/11:30pm 7.3 3.7 4.8 84 1.1 S 13 15 7 8 1029.6 - 0.0
21/11:00pm 7.5 3.8 4.5 81 1.3 S 13 15 7 8 1029.7 - 0.0
21/10:30pm 8.0 4.7 4.6 79 1.5 S 11 13 6 7 1029.6 - 0.0
21/10:00pm 8.8 4.7 4.5 74 1.9 SSE 15 17 8 9 1029.8 - 0.0
21/09:30pm 9.6 5.6 4.7 71 2.2 SSE 15 17 8 9 1029.8 - 0.0
21/09:00pm 10.3 6.3 4.7 68 2.5 SSE 15 17 8 9 1029.7 1029.7 0.0
21/08:30pm 10.9 6.9 4.7 65 2.8 SSE 15 17 8 9 1029.6 - 0.0
21/08:00pm 11.3 7.2 4.4 62 3.1 SSE 15 17 8 9 1029.4 - 0.0
21/07:30pm 11.1 7.8 4.4 63 3.0 SE 11 13 6 7 1029.2 - 0.0
21/07:00pm 11.3 8.0 4.4 62 3.1 SE 11 13 6 7 1029.0 - 0.0
21/06:30pm 11.9 9.4 4.9 62 3.2 S 7 9 4 5 1028.8 - 0.0
21/06:00pm 12.3 9.0 4.6 59 3.5 S 11 15 6 8 1028.5 1028.5 0.0
21/05:30pm 13.2 8.7 4.2 54 4.1 S 17 22 9 12 1028.3 - 0.0
21/05:00pm 13.7 9.2 4.1 52 4.4 S 17 24 9 13 1028.1 - 0.0
21/04:30pm 13.9 8.7 3.8 50 4.6 S 20 32 11 17 1028.0 - 0.0
21/04:00pm 14.2 8.6 3.4 48 4.9 SSW 22 28 12 15 1027.9 - 0.0
21/03:30pm 14.2 8.3 3.9 50 4.7 S 24 35 13 19 1027.7 - 0.0
21/03:00pm 13.9 8.4 3.9 51 4.6 S 22 28 12 15 1027.6 - 0.0
21/02:30pm 13.4 7.9 4.2 53 4.2 S 22 30 12 16 1027.5 - 0.0
21/02:00pm 13.8 7.9 3.9 51 4.5 S 24 33 13 18 1027.4 - 0.0
21/01:30pm 13.8 7.5 3.7 50 4.6 SSW 26 35 14 19 1027.5 - 0.0
21/01:00pm 14.2 8.1 2.8 46 5.1 SSE 24 30 13 16 1027.6 - 0.0
21/12:30pm 13.4 7.8 3.7 52 4.4 S 22 32 12 17 1027.9 - 0.0
21/12:00pm 13.3 7.0 3.5 51 4.4 S 26 37 14 20 1028.1 1028.1 0.0
21/11:30am 12.8 6.8 3.4 53 4.2 S 24 32 13 17 1028.5 - 0.0
21/11:00am 12.7 7.5 3.8 54 4.0 S 20 33 11 18 1028.8 - 0.0
21/10:30am 12.1 6.1 3.6 56 3.8 S 24 32 13 17 1028.6 - 0.0
21/10:00am 11.0 5.6 4.3 63 3.0 S 22 28 12 15 1028.7 - 0.0
21/09:30am 10.2 4.0 4.4 67 2.6 S 26 33 14 18 1028.5 - 0.0
21/09:00am 9.5 3.7 4.6 71 2.2 S 24 33 13 18 1028.1 1028.1 0.0
21/08:30am 8.7 3.7 4.6 75 1.8 S 20 26 11 14 1027.8 - 0.0
21/08:00am 7.4 2.6 4.4 81 1.3 SSW 19 24 10 13 1027.5 - 0.0
21/07:30am 6.1 1.7 4.5 89 0.7 SW 17 20 9 11 1027.3 - 0.0
21/07:00am 6.6 2.2 4.5 86 0.9 SSW 17 20 9 11 1026.9 - 0.0
21/06:30am 6.9 2.9 4.8 86 0.9 SSW 15 20 8 11 1026.4 - 0.0
21/06:00am 7.1 3.1 5.1 87 0.9 SW 15 19 8 10 1026.1 1026.0 0.0
21/05:30am 6.3 2.6 4.4 88 0.8 SSW 13 15 7 8 1025.8 - 0.0
21/05:00am 6.4 2.7 4.6 88 0.8 SSW 13 17 7 9 1025.7 - 0.0
21/04:30am 6.4 2.7 4.6 88 0.8 SSW 13 17 7 9 1025.4 - 0.0
21/04:00am 6.9 2.5 4.9 87 0.9 SSW 17 20 9 11 1025.2 - 0.0
21/03:30am 7.2 2.8 4.7 84 1.1 SSW 17 22 9 12 1025.1 - 0.0
21/03:00am 7.4 3.0 4.7 83 1.2 SSW 17 22 9 12 1025.1 1025.0 0.0
21/02:30am 7.6 3.2 4.9 83 1.2 SSW 17 20 9 11 1025.2 - 0.0
21/02:00am 7.6 3.5 4.6 81 1.3 SSW 15 20 8 11 1025.2 - 0.0
21/01:30am 7.9 3.5 4.5 79 1.5 SSW 17 20 9 11 1025.2 - 0.0
21/01:00am 8.4 4.3 4.3 75 1.8 S 15 19 8 10 1025.1 - 0.0
21/12:30am 8.9 4.4 4.1 72 2.1 S 17 20 9 11 1025.0 - 0.0
21/12:00am 8.9 4.3 3.6 69 2.3 S 17 20 9 11 1024.8 1024.7 0.0
 
Date/Time
CST
Temp
°C
App
Temp
°C
Dew
Point
Rel
Hum
%
Delta-T
°C
Wind Press
QNH
hPa
Press
MSL
hPa
Rain
since 9 am
mm
Dir
 
Spd
km/h
Gust
km/h
Spd
kts
Gust
kts
20/11:30pm 9.6 5.3 3.4 65 2.7 S 15 17 8 9 1024.7 - 0.0
20/11:00pm 10.5 4.9 3.2 60 3.2 S 22 26 12 14 1024.6 - 0.0
20/10:30pm 10.9 5.6 3.1 58 3.4 S 20 26 11 14 1024.4 - 0.0
20/10:00pm 11.7 6.4 3.1 55 3.8 SSW 20 24 11 13 1024.1 - 0.0
20/09:30pm 11.9 7.2 3.1 55 3.9 SSW 17 22 9 12 1024.0 - 0.0

Other Formats:

Comma delimited format used in spreadsheet applications
http://www.bom.gov.au/fwo/IDS60801/IDS60801.94659.axf

JavaScript Object Notation format (JSON) in row-major order
http://www.bom.gov.au/fwo/IDS60801/IDS60801.94659.json